Time;durP1;ratioP1;P1;durP2;ratioP2;P2;SDS_P1;SDS_P2;PMS_P1;PMS_P2;Temp;Humidity;BMP_temperature;BMP_pressure;BME280_temperature;BME280_humidity;BME280_pressure;Samples;Min_cycle;Max_cycle;Signal;HPM_P1;HPM_P2
2024/01/31 00:01:37;;;;;;;0.40;0.38;;;5.20;99.90;;;;;;5035938;28;20129;-74
2024/01/31 00:04:04;;;;;;;0.20;0.20;;;5.20;99.90;;;;;;5059908;28;20581;-74
2024/01/31 00:06:30;;;;;;;3.00;0.28;;;5.20;99.90;;;;;;5045556;28;20065;-74
2024/01/31 00:08:57;;;;;;;5.55;0.30;;;5.20;99.90;;;;;;5037185;28;20052;-75
2024/01/31 00:11:28;;;;;;;6.80;0.70;;;5.30;99.90;;;;;;5035302;28;20145;-74
2024/01/31 00:13:54;;;;;;;2.72;0.35;;;5.20;99.90;;;;;;5037454;28;20041;-74
2024/01/31 00:16:20;;;;;;;1.30;0.20;;;5.30;99.90;;;;;;5066082;28;20037;-74
2024/01/31 00:18:46;;;;;;;5.05;0.57;;;5.20;99.90;;;;;;5020334;28;20065;-74
2024/01/31 00:21:11;;;;;;;2.40;0.20;;;5.20;99.90;;;;;;5052714;28;20122;-74
2024/01/31 00:23:37;;;;;;;1.42;0.28;;;5.20;99.90;;;;;;5038735;28;20072;-74
2024/01/31 00:26:03;;;;;;;0.85;0.77;;;5.20;99.90;;;;;;5035799;28;20052;-75
2024/01/31 00:28:29;;;;;;;0.40;0.40;;;5.20;99.90;;;;;;5036815;28;20048;-74
2024/01/31 00:30:54;;;;;;;6.05;1.05;;;5.10;99.90;;;;;;5053950;28;20048;-74
2024/01/31 00:33:20;;;;;;;1.27;0.65;;;5.10;99.90;;;;;;5052824;28;20059;-74
2024/01/31 00:35:46;;;;;;;6.30;0.90;;;5.10;99.90;;;;;;5059692;28;20048;-74
2024/01/31 00:38:11;;;;;;;4.90;0.45;;;5.10;99.90;;;;;;5060956;28;20127;-74
2024/01/31 00:40:37;;;;;;;0.57;0.50;;;5.10;99.90;;;;;;5078103;28;20074;-74
2024/01/31 00:43:03;;;;;;;1.83;0.40;;;5.10;99.90;;;;;;5050218;28;20033;-74
2024/01/31 00:45:29;;;;;;;0.03;0.03;;;5.10;99.90;;;;;;5060998;28;20120;-74
2024/01/31 00:47:54;;;;;;;1.02;0.50;;;5.10;99.90;;;;;;5061511;28;20037;-74
2024/01/31 00:50:20;;;;;;;2.30;0.50;;;5.10;99.90;;;;;;5060804;28;20094;-74
2024/01/31 00:52:46;;;;;;;2.80;0.80;;;5.10;99.90;;;;;;5069013;28;20048;-74
2024/01/31 00:55:11;;;;;;;1.88;0.77;;;5.10;99.90;;;;;;5051299;28;20053;-74
2024/01/31 00:57:37;;;;;;;3.17;0.32;;;5.10;99.90;;;;;;5078812;28;20037;-74
2024/01/31 01:00:08;;;;;;;1.05;0.40;;;5.10;99.90;;;;;;5061234;28;20068;-74
2024/01/31 01:02:40;;;;;;;0.50;0.50;;;5.10;99.90;;;;;;5061397;28;20048;-74
2024/01/31 01:05:10;;;;;;;0.38;0.35;;;5.10;99.90;;;;;;5074794;28;20051;-74
2024/01/31 01:07:39;;;;;;;0.30;0.30;;;5.10;99.90;;;;;;5039487;28;20044;-74
2024/01/31 01:10:15;;;;;;;1.00;0.30;;;5.10;99.90;;;;;;5057242;28;20041;-74
2024/01/31 01:12:42;;;;;;;0.35;0.28;;;5.10;99.90;;;;;;5048716;28;20128;-74
2024/01/31 01:15:08;;;;;;;3.65;0.38;;;5.00;99.90;;;;;;5065201;28;20041;-74
2024/01/31 01:17:35;;;;;;;1.15;0.30;;;5.00;99.90;;;;;;5077794;28;20048;-74
2024/01/31 01:20:01;;;;;;;0.15;0.13;;;5.00;99.90;;;;;;5043059;28;20102;-74
2024/01/31 01:22:27;;;;;;;0.43;0.20;;;5.00;99.90;;;;;;5053767;28;20120;-74
2024/01/31 01:24:53;;;;;;;2.28;0.40;;;5.00;99.90;;;;;;5042567;28;20068;-74
2024/01/31 01:27:19;;;;;;;1.08;0.38;;;4.90;99.90;;;;;;5025355;28;20063;-74
2024/01/31 01:29:44;;;;;;;2.78;0.38;;;5.00;99.90;;;;;;5023096;28;20041;-74
2024/01/31 01:32:10;;;;;;;4.95;0.25;;;5.00;99.90;;;;;;5056350;28;20075;-74
2024/01/31 01:34:40;;;;;;;4.10;0.55;;;4.90;99.90;;;;;;5049362;28;20075;-74
2024/01/31 01:37:06;;;;;;;5.20;0.20;;;4.90;99.90;;;;;;5051213;28;20569;-74
2024/01/31 01:39:32;;;;;;;1.13;0.30;;;4.90;99.90;;;;;;5050056;28;20041;-74
2024/01/31 01:41:57;;;;;;;0.65;0.25;;;4.90;99.90;;;;;;5031639;28;20066;-74
2024/01/31 01:44:23;;;;;;;2.88;0.55;;;4.90;99.90;;;;;;5055685;28;20045;-74
2024/01/31 01:46:50;;;;;;;1.58;0.60;;;4.80;99.90;;;;;;5053028;28;20040;-74
2024/01/31 01:49:17;;;;;;;0.68;0.35;;;4.90;99.90;;;;;;5045517;28;20408;-74
2024/01/31 01:51:44;;;;;;;5.93;0.55;;;4.80;99.90;;;;;;5060215;28;20064;-74
2024/01/31 01:54:12;;;;;;;1.15;0.45;;;4.90;99.90;;;;;;5080882;28;20048;-74
2024/01/31 01:56:46;;;;;;;1.73;0.40;;;4.80;99.90;;;;;;5080881;28;20044;-74
2024/01/31 01:59:13;;;;;;;0.50;0.20;;;4.80;99.90;;;;;;5064092;28;20102;-74
2024/01/31 02:01:40;;;;;;;1.83;0.60;;;4.90;99.90;;;;;;5040373;28;20045;-74
2024/01/31 02:04:09;;;;;;;0.20;0.20;;;4.90;99.90;;;;;;5058511;28;20067;-73
2024/01/31 02:06:35;;;;;;;1.05;0.60;;;4.90;99.90;;;;;;5055987;28;20079;-74
2024/01/31 02:09:01;;;;;;;0.75;0.25;;;4.80;99.90;;;;;;5064315;28;20106;-73
2024/01/31 02:11:26;;;;;;;3.42;0.50;;;4.90;99.90;;;;;;5058450;28;20049;-74
2024/01/31 02:13:52;;;;;;;1.30;0.40;;;4.90;99.90;;;;;;5052696;28;20140;-74
2024/01/31 02:16:18;;;;;;;2.03;0.30;;;4.90;99.90;;;;;;5061452;28;20041;-74
2024/01/31 02:18:44;;;;;;;0.80;0.57;;;4.90;99.90;;;;;;5044292;28;20052;-74
2024/01/31 02:21:09;;;;;;;1.65;0.60;;;4.90;99.90;;;;;;5044550;28;20042;-73
2024/01/31 02:23:35;;;;;;;1.73;0.38;;;4.90;99.90;;;;;;5063470;28;20055;-73
2024/01/31 02:26:01;;;;;;;2.20;0.57;;;4.90;99.90;;;;;;5080681;28;20048;-74
2024/01/31 02:28:27;;;;;;;4.78;0.20;;;4.90;99.90;;;;;;5063124;28;20040;-74
2024/01/31 02:30:53;;;;;;;0.50;0.30;;;4.90;99.90;;;;;;5025610;28;20049;-74
2024/01/31 02:33:19;;;;;;;0.68;0.10;;;4.90;99.90;;;;;;5078052;28;20036;-74
2024/01/31 02:35:45;;;;;;;0.43;0.30;;;4.80;99.90;;;;;;5053533;28;20063;-74
2024/01/31 02:38:10;;;;;;;0.57;0.10;;;4.90;99.90;;;;;;5049063;28;20045;-73
2024/01/31 02:40:36;;;;;;;1.08;0.22;;;4.90;99.90;;;;;;5073066;28;20092;-74
2024/01/31 02:43:02;;;;;;;1.55;0.70;;;4.90;99.90;;;;;;5039292;28;20055;-74
2024/01/31 02:45:27;;;;;;;4.65;0.47;;;4.80;99.90;;;;;;5047275;28;20092;-73
2024/01/31 02:47:53;;;;;;;0.60;0.47;;;4.80;99.90;;;;;;5049738;28;20614;-73
2024/01/31 02:50:19;;;;;;;0.52;0.10;;;4.80;99.90;;;;;;5056418;28;20041;-74
2024/01/31 02:52:47;;;;;;;0.55;0.20;;;4.80;99.90;;;;;;5054428;28;20052;-74
2024/01/31 02:55:13;;;;;;;4.43;0.30;;;4.80;99.90;;;;;;5078312;28;20033;-74
2024/01/31 02:57:38;;;;;;;0.10;0.10;;;4.90;99.90;;;;;;5062801;28;20052;-73
2024/01/31 03:00:06;;;;;;;1.65;0.10;;;4.80;99.90;;;;;;5048981;28;20109;-73
2024/01/31 03:02:32;;;;;;;0.20;0.10;;;4.80;99.90;;;;;;5012822;28;20084;-73
2024/01/31 03:04:58;;;;;;;0.57;0.20;;;4.90;99.90;;;;;;5044278;28;20052;-74
2024/01/31 03:07:23;;;;;;;4.40;0.40;;;4.90;99.90;;;;;;5036712;28;20045;-74
2024/01/31 03:09:49;;;;;;;1.30;0.20;;;4.90;99.90;;;;;;5045236;28;20045;-73
2024/01/31 03:12:15;;;;;;;1.27;0.38;;;4.90;99.90;;;;;;5043537;28;20087;-74
2024/01/31 03:14:40;;;;;;;5.53;0.52;;;4.90;99.90;;;;;;5046662;28;20052;-73
2024/01/31 03:17:06;;;;;;;0.43;0.15;;;4.90;99.90;;;;;;5048602;28;20080;-73
2024/01/31 03:19:32;;;;;;;5.50;0.70;;;4.90;99.90;;;;;;5043071;28;20045;-74
2024/01/31 03:21:58;;;;;;;4.32;0.22;;;4.90;99.90;;;;;;5043469;28;20076;-73
2024/01/31 03:24:24;;;;;;;0.98;0.30;;;4.90;99.90;;;;;;5051236;28;20048;-73
2024/01/31 03:26:50;;;;;;;0.22;0.20;;;4.80;99.90;;;;;;5054346;28;20036;-73
2024/01/31 03:29:17;;;;;;;0.75;0.22;;;4.80;99.90;;;;;;5044191;28;20059;-73
2024/01/31 03:31:42;;;;;;;2.08;0.20;;;4.80;99.90;;;;;;5039104;28;20049;-74
2024/01/31 03:34:08;;;;;;;1.73;0.30;;;4.80;99.90;;;;;;5024557;28;20040;-73
2024/01/31 03:36:35;;;;;;;2.22;0.30;;;4.80;99.90;;;;;;5041148;28;20049;-73
2024/01/31 03:39:00;;;;;;;0.10;0.10;;;4.80;99.90;;;;;;5056694;28;20399;-74
2024/01/31 03:41:27;;;;;;;0.75;0.40;;;4.80;99.90;;;;;;5061136;28;20051;-73
2024/01/31 03:43:54;;;;;;;3.67;0.50;;;4.80;99.90;;;;;;5056894;28;20052;-73
2024/01/31 03:46:20;;;;;;;2.47;0.30;;;4.80;99.90;;;;;;5040764;28;20071;-73
2024/01/31 03:48:47;;;;;;;2.05;0.22;;;4.80;99.90;;;;;;5039553;28;20051;-73
2024/01/31 03:51:20;;;;;;;1.75;0.55;;;4.70;99.90;;;;;;5056495;28;20041;-73
2024/01/31 03:53:47;;;;;;;0.55;0.40;;;4.70;99.90;;;;;;5057817;28;20057;-73
2024/01/31 03:56:13;;;;;;;2.58;0.52;;;4.70;99.90;;;;;;5040313;28;20109;-73
2024/01/31 03:58:40;;;;;;;0.00;0.00;;;4.70;99.90;;;;;;5051812;28;20056;-73
2024/01/31 04:01:06;;;;;;;4.43;0.20;;;4.70;99.90;;;;;;5057903;28;20102;-73
2024/01/31 04:03:31;;;;;;;0.80;0.28;;;4.80;99.90;;;;;;5044337;28;20053;-74
2024/01/31 04:05:57;;;;;;;6.28;0.47;;;4.70;99.90;;;;;;5023561;28;20048;-73
2024/01/31 04:08:23;;;;;;;0.20;0.10;;;4.70;99.90;;;;;;5059145;28;20495;-73
2024/01/31 04:10:49;;;;;;;1.90;0.70;;;4.70;99.90;;;;;;5057182;28;20102;-73
2024/01/31 04:13:14;;;;;;;5.78;0.57;;;4.70;99.90;;;;;;5059353;28;20500;-73
2024/01/31 04:15:40;;;;;;;5.93;0.47;;;4.70;99.90;;;;;;5051422;28;20045;-73
2024/01/31 04:18:07;;;;;;;2.35;0.82;;;4.70;99.90;;;;;;5038932;28;20065;-73
2024/01/31 04:20:40;;;;;;;2.47;0.70;;;4.70;99.90;;;;;;5027246;28;20057;-73
2024/01/31 04:23:06;;;;;;;1.77;0.40;;;4.70;99.90;;;;;;5037018;28;20107;-73
2024/01/31 04:25:32;;;;;;;0.90;0.40;;;4.70;99.90;;;;;;5040272;28;20104;-73
2024/01/31 04:27:58;;;;;;;9.65;0.50;;;4.70;99.90;;;;;;5037539;28;20091;-73
2024/01/31 04:30:23;;;;;;;5.22;0.60;;;4.70;99.90;;;;;;5056064;28;20044;-73
2024/01/31 04:32:49;;;;;;;2.92;0.43;;;4.70;99.90;;;;;;5036794;28;20049;-73
2024/01/31 04:35:15;;;;;;;1.27;0.40;;;4.70;99.90;;;;;;5056785;28;20087;-73
2024/01/31 04:37:41;;;;;;;0.30;0.30;;;4.70;99.90;;;;;;5039460;28;20056;-73
2024/01/31 04:40:07;;;;;;;1.80;0.43;;;4.80;99.90;;;;;;5041847;28;20064;-73
2024/01/31 04:42:33;;;;;;;2.50;0.20;;;4.80;99.90;;;;;;5024436;28;20051;-73
2024/01/31 04:44:59;;;;;;;0.55;0.30;;;4.80;99.90;;;;;;5038897;28;20037;-73
2024/01/31 04:47:25;;;;;;;1.77;0.35;;;4.80;99.90;;;;;;5066556;28;20049;-73
2024/01/31 04:50:01;;;;;;;0.28;0.28;;;4.80;99.90;;;;;;5068000;28;20110;-73
2024/01/31 04:52:27;;;;;;;3.63;0.38;;;4.80;99.90;;;;;;5026295;28;20037;-73
2024/01/31 04:54:53;;;;;;;0.55;0.55;;;4.80;99.90;;;;;;5070621;28;20040;-73
2024/01/31 04:57:19;;;;;;;0.22;0.22;;;4.80;99.90;;;;;;5076665;28;20052;-73
2024/01/31 04:59:44;;;;;;;2.72;0.55;;;4.80;99.90;;;;;;5040518;28;20076;-73
2024/01/31 05:02:10;;;;;;;3.67;0.32;;;4.80;99.90;;;;;;5061310;28;20040;-73
2024/01/31 05:04:36;;;;;;;5.72;0.63;;;4.80;99.90;;;;;;5036428;28;20045;-73
2024/01/31 05:07:03;;;;;;;1.48;1.05;;;4.80;99.90;;;;;;5052944;28;20068;-73
2024/01/31 05:09:29;;;;;;;3.35;1.08;;;4.80;99.90;;;;;;5034385;28;20049;-73
2024/01/31 05:11:54;;;;;;;1.00;0.60;;;4.80;99.90;;;;;;5077233;28;20054;-73
2024/01/31 05:14:20;;;;;;;0.40;0.40;;;4.80;99.90;;;;;;5060974;28;20045;-73
2024/01/31 05:16:46;;;;;;;6.93;0.40;;;4.80;99.90;;;;;;5063560;28;20123;-72
2024/01/31 05:19:12;;;;;;;2.08;0.85;;;4.80;99.90;;;;;;5046553;28;20045;-73
2024/01/31 05:21:48;;;;;;;0.95;0.63;;;4.80;99.90;;;;;;5062173;28;20033;-73
2024/01/31 05:24:14;;;;;;;2.15;1.63;;;4.80;99.90;;;;;;5073317;28;20053;-73
2024/01/31 05:26:42;;;;;;;1.45;0.50;;;4.80;99.90;;;;;;5067176;28;20080;-73
2024/01/31 05:29:08;;;;;;;2.08;0.77;;;4.80;99.90;;;;;;5036759;28;20071;-73
2024/01/31 05:31:34;;;;;;;8.45;0.65;;;4.80;99.90;;;;;;5043586;28;20041;-73
2024/01/31 05:34:00;;;;;;;0.40;0.35;;;4.80;99.90;;;;;;5065089;28;20377;-72
2024/01/31 05:36:25;;;;;;;4.15;0.93;;;4.80;99.90;;;;;;5042484;28;20044;-73
2024/01/31 05:38:51;;;;;;;2.25;0.63;;;4.80;99.90;;;;;;5077281;28;20070;-72
2024/01/31 05:41:17;;;;;;;1.17;0.70;;;4.80;99.90;;;;;;5056267;28;20087;-73
2024/01/31 05:43:43;;;;;;;0.85;0.80;;;4.80;99.90;;;;;;5040907;28;20127;-73
2024/01/31 05:46:08;;;;;;;0.75;0.38;;;4.80;99.90;;;;;;5061109;28;20082;-73
2024/01/31 05:48:34;;;;;;;4.45;1.50;;;4.80;99.90;;;;;;5077392;28;20036;-73
2024/01/31 05:51:00;;;;;;;4.30;0.85;;;4.80;99.90;;;;;;5066924;28;20049;-73
2024/01/31 05:53:25;;;;;;;3.78;0.68;;;4.80;99.90;;;;;;5081157;28;20048;-73
2024/01/31 05:55:51;;;;;;;1.45;0.55;;;4.80;99.90;;;;;;5064423;28;20076;-73
2024/01/31 05:58:23;;;;;;;0.85;0.55;;;4.80;99.90;;;;;;5056145;28;20037;-73
2024/01/31 06:00:49;;;;;;;4.80;0.77;;;4.90;99.90;;;;;;5081580;28;20088;-73
2024/01/31 06:03:15;;;;;;;1.25;0.70;;;4.80;99.90;;;;;;5080327;28;20056;-72
2024/01/31 06:05:41;;;;;;;2.80;0.60;;;4.80;99.90;;;;;;5097575;28;20128;-73
2024/01/31 06:08:07;;;;;;;2.75;1.23;;;4.80;99.90;;;;;;5065743;28;20056;-73
2024/01/31 06:10:33;;;;;;;2.15;0.70;;;4.80;99.90;;;;;;5081020;28;20048;-73
2024/01/31 06:12:59;;;;;;;1.75;0.47;;;4.80;99.90;;;;;;5080851;28;20055;-73
2024/01/31 06:15:25;;;;;;;2.58;0.63;;;4.80;99.90;;;;;;5059143;28;20051;-72
2024/01/31 06:17:51;;;;;;;0.90;0.60;;;4.80;99.90;;;;;;5080999;28;20120;-73
2024/01/31 06:20:17;;;;;;;6.22;0.95;;;4.80;99.90;;;;;;5060029;28;20112;-73
2024/01/31 06:22:43;;;;;;;4.03;0.80;;;4.80;99.90;;;;;;5053697;28;20080;-73
2024/01/31 06:25:09;;;;;;;2.88;1.02;;;4.80;99.90;;;;;;5057755;28;20037;-73
2024/01/31 06:27:37;;;;;;;3.22;1.00;;;4.80;99.90;;;;;;5033636;28;20064;-73
2024/01/31 06:30:04;;;;;;;1.73;0.70;;;4.80;99.90;;;;;;5023681;28;20045;-73
2024/01/31 06:32:32;;;;;;;4.03;1.02;;;4.80;99.90;;;;;;5064768;28;20044;-73
2024/01/31 06:35:02;;;;;;;1.08;0.98;;;4.90;99.90;;;;;;5080708;28;20049;-72
2024/01/31 06:37:28;;;;;;;3.08;1.38;;;4.90;99.90;;;;;;5079562;28;20040;-73
2024/01/31 06:39:54;;;;;;;0.80;0.65;;;4.90;99.90;;;;;;5056383;28;20037;-72
2024/01/31 06:42:20;;;;;;;3.17;0.75;;;4.90;99.90;;;;;;5076636;28;20045;-72
2024/01/31 06:44:46;;;;;;;2.72;1.40;;;4.90;99.90;;;;;;5049863;28;20404;-73
2024/01/31 06:47:11;;;;;;;1.92;0.93;;;4.90;99.90;;;;;;5058101;28;20036;-72
2024/01/31 06:49:37;;;;;;;1.00;0.77;;;4.90;99.90;;;;;;5038158;28;20052;-73
2024/01/31 06:52:03;;;;;;;2.03;0.85;;;4.90;99.90;;;;;;5042040;28;20041;-72
2024/01/31 06:54:29;;;;;;;1.50;0.93;;;4.90;99.90;;;;;;5054716;28;20136;-72
2024/01/31 06:56:55;;;;;;;5.47;1.13;;;4.90;99.90;;;;;;5042288;28;20156;-72
2024/01/31 06:59:20;;;;;;;1.77;0.82;;;4.90;99.90;;;;;;5047523;28;20037;-72
2024/01/31 07:01:46;;;;;;;1.27;1.08;;;4.90;99.90;;;;;;5066946;28;20098;-72
2024/01/31 07:04:12;;;;;;;8.27;1.60;;;4.90;99.90;;;;;;5030049;28;20074;-72
2024/01/31 07:06:38;;;;;;;2.60;1.10;;;4.90;99.90;;;;;;5022255;28;20063;-72
2024/01/31 07:09:04;;;;;;;4.38;1.73;;;4.90;99.90;;;;;;5050114;28;20053;-73
2024/01/31 07:11:30;;;;;;;5.15;1.30;;;4.90;99.90;;;;;;5035702;28;20045;-73
2024/01/31 07:13:55;;;;;;;2.78;1.77;;;4.90;99.90;;;;;;5067052;28;20052;-73
2024/01/31 07:16:21;;;;;;;2.33;1.45;;;4.90;99.90;;;;;;5060109;28;20037;-73
2024/01/31 07:18:47;;;;;;;2.53;1.90;;;4.90;99.90;;;;;;5029358;28;20697;-73
2024/01/31 07:21:23;;;;;;;4.25;1.73;;;4.90;99.90;;;;;;5047378;28;20041;-72
2024/01/31 07:23:49;;;;;;;7.18;2.20;;;4.90;99.90;;;;;;5032949;28;20045;-72
2024/01/31 07:26:23;;;;;;;7.93;1.80;;;5.00;99.90;;;;;;5036885;28;20099;-72
2024/01/31 07:28:49;;;;;;;4.93;1.77;;;4.90;99.90;;;;;;5077881;28;20055;-73
2024/01/31 07:31:14;;;;;;;4.38;2.05;;;4.90;99.90;;;;;;5069461;28;20053;-72
2024/01/31 07:33:40;;;;;;;6.68;1.52;;;4.90;99.90;;;;;;5025525;28;20037;-72
2024/01/31 07:36:06;;;;;;;2.22;1.95;;;5.00;99.90;;;;;;5060810;28;20033;-74
2024/01/31 07:38:32;;;;;;;4.47;1.55;;;5.00;99.90;;;;;;5038869;28;20053;-72
2024/01/31 07:40:58;;;;;;;3.28;1.75;;;5.00;99.90;;;;;;5078515;28;20585;-72
2024/01/31 07:43:24;;;;;;;6.05;2.03;;;5.00;99.90;;;;;;5054267;28;20044;-72
2024/01/31 07:45:49;;;;;;;7.30;2.10;;;4.90;99.90;;;;;;5017011;28;20064;-72
2024/01/31 07:48:15;;;;;;;6.28;1.80;;;5.00;99.90;;;;;;5068252;28;20052;-72
2024/01/31 07:50:41;;;;;;;4.22;1.35;;;5.00;99.90;;;;;;5051808;28;20044;-72
2024/01/31 07:53:06;;;;;;;4.85;1.80;;;5.00;99.90;;;;;;5025602;28;20449;-72
2024/01/31 07:55:32;;;;;;;6.07;1.85;;;5.00;99.90;;;;;;5051851;28;20052;-72
2024/01/31 07:57:58;;;;;;;3.75;1.90;;;5.00;99.90;;;;;;5052193;28;20037;-72
2024/01/31 08:00:24;;;;;;;4.07;1.70;;;5.00;99.90;;;;;;5058397;28;20104;-72
2024/01/31 08:02:49;;;;;;;5.70;2.03;;;5.00;99.90;;;;;;5051952;28;20059;-73
2024/01/31 08:05:15;;;;;;;8.25;1.65;;;5.00;99.90;;;;;;5055791;28;20434;-72
2024/01/31 08:07:44;;;;;;;2.78;1.40;;;5.00;99.90;;;;;;5049247;28;20423;-72
2024/01/31 08:10:12;;;;;;;7.90;1.67;;;5.10;99.90;;;;;;5061931;28;20052;-72
2024/01/31 08:12:38;;;;;;;4.88;1.60;;;5.00;99.90;;;;;;5078343;28;20048;-72
2024/01/31 08:15:04;;;;;;;2.65;1.50;;;5.10;99.90;;;;;;5041038;28;20488;-72
2024/01/31 08:17:29;;;;;;;2.72;1.23;;;5.10;99.90;;;;;;5014636;28;20044;-72
2024/01/31 08:19:55;;;;;;;3.33;1.33;;;5.10;99.90;;;;;;5052902;28;20073;-72
2024/01/31 08:22:21;;;;;;;8.60;1.40;;;5.10;99.90;;;;;;5062116;28;20070;-72
2024/01/31 08:24:46;;;;;;;3.65;1.42;;;5.10;99.90;;;;;;5018092;28;20821;-72
2024/01/31 08:27:12;;;;;;;1.92;1.30;;;5.20;99.90;;;;;;5044661;28;20053;-72
2024/01/31 08:29:38;;;;;;;3.25;1.35;;;5.20;99.90;;;;;;5042571;28;20119;-72
2024/01/31 08:32:04;;;;;;;2.72;1.77;;;5.20;99.90;;;;;;5056275;28;20041;-72
2024/01/31 08:34:30;;;;;;;5.65;1.75;;;5.20;99.90;;;;;;5056820;28;20040;-72
2024/01/31 08:36:56;;;;;;;2.03;1.33;;;5.30;99.90;;;;;;5038497;28;20040;-72
2024/01/31 08:39:22;;;;;;;3.60;1.10;;;5.30;99.90;;;;;;5073120;28;20098;-72
2024/01/31 08:41:48;;;;;;;5.30;1.67;;;5.30;99.90;;;;;;5049209;28;20033;-72
2024/01/31 08:44:15;;;;;;;3.15;1.40;;;5.30;99.90;;;;;;5067470;28;20052;-73
2024/01/31 08:46:41;;;;;;;4.60;0.90;;;5.40;99.90;;;;;;5051767;28;20053;-72
2024/01/31 08:49:06;;;;;;;1.23;1.10;;;5.40;99.90;;;;;;5057952;28;20079;-73
2024/01/31 08:51:35;;;;;;;2.10;1.10;;;5.40;99.90;;;;;;5046454;28;20052;-72
2024/01/31 08:54:01;;;;;;;3.13;1.00;;;5.50;99.90;;;;;;5044243;28;20029;-72
2024/01/31 08:56:27;;;;;;;4.20;1.58;;;5.50;99.90;;;;;;5032980;28;20043;-72
2024/01/31 08:58:53;;;;;;;5.00;1.45;;;5.50;99.90;;;;;;5041905;28;20044;-73
2024/01/31 09:01:18;;;;;;;1.92;0.90;;;5.60;99.90;;;;;;5022765;28;20045;-73
2024/01/31 09:03:44;;;;;;;1.98;1.20;;;5.60;99.90;;;;;;5061164;28;20068;-74
2024/01/31 09:06:10;;;;;;;2.45;1.52;;;5.60;99.90;;;;;;5088816;28;20097;-73
2024/01/31 09:08:36;;;;;;;3.90;1.20;;;5.70;99.90;;;;;;5055128;28;20077;-72
2024/01/31 09:11:02;;;;;;;3.53;1.30;;;5.70;99.90;;;;;;5027404;28;20041;-73
2024/01/31 09:13:27;;;;;;;1.98;1.17;;;5.70;99.90;;;;;;5041836;28;20029;-73
2024/01/31 09:15:56;;;;;;;2.22;1.25;;;5.70;99.90;;;;;;5043831;28;20036;-73
2024/01/31 09:18:22;;;;;;;1.73;1.05;;;5.80;99.90;;;;;;5057448;28;20045;-73
2024/01/31 09:20:48;;;;;;;3.70;1.60;;;5.80;99.90;;;;;;5042190;28;20044;-72
2024/01/31 09:23:13;;;;;;;4.28;1.40;;;5.80;99.90;;;;;;5071018;28;20117;-73
2024/01/31 09:25:39;;;;;;;1.67;1.27;;;5.80;99.90;;;;;;5060890;28;20522;-73
2024/01/31 09:28:05;;;;;;;3.60;1.60;;;5.80;99.90;;;;;;5042326;28;20099;-73
2024/01/31 09:30:30;;;;;;;2.47;1.10;;;5.80;99.90;;;;;;5072728;28;20071;-73
2024/01/31 09:32:56;;;;;;;2.47;1.73;;;5.80;99.90;;;;;;5069909;28;20067;-73
2024/01/31 09:35:22;;;;;;;5.45;1.15;;;5.90;99.90;;;;;;5059775;28;20059;-72
2024/01/31 09:37:47;;;;;;;5.43;1.55;;;5.90;99.90;;;;;;5028102;28;20036;-72
2024/01/31 09:40:15;;;;;;;2.10;1.25;;;5.90;99.90;;;;;;5033193;28;20045;-73
2024/01/31 09:42:45;;;;;;;7.80;1.50;;;6.00;99.90;;;;;;5057185;28;20098;-72
2024/01/31 09:45:12;;;;;;;2.15;1.33;;;6.00;99.90;;;;;;5047376;28;20046;-73
2024/01/31 09:47:42;;;;;;;2.08;1.65;;;6.10;99.90;;;;;;5067926;28;20049;-73
2024/01/31 09:50:08;;;;;;;8.73;2.25;;;6.10;99.90;;;;;;5058372;28;20128;-73
2024/01/31 09:52:35;;;;;;;2.38;1.40;;;6.20;99.90;;;;;;5036773;28;20044;-73
2024/01/31 09:55:04;;;;;;;1.73;1.58;;;6.20;99.90;;;;;;5077222;28;20110;-73
2024/01/31 09:57:30;;;;;;;2.58;1.35;;;6.30;99.90;;;;;;5060081;28;20050;-73
2024/01/31 09:59:57;;;;;;;2.83;1.55;;;6.30;99.90;;;;;;5041433;28;20048;-72
2024/01/31 10:02:22;;;;;;;2.95;1.52;;;6.40;99.90;;;;;;5041384;28;20109;-73
2024/01/31 10:04:49;;;;;;;2.47;1.48;;;6.40;99.90;;;;;;5085122;28;20049;-73
2024/01/31 10:07:28;;;;;;;2.47;1.98;;;6.40;99.90;;;;;;5068450;28;20045;-73
2024/01/31 10:09:55;;;;;;;3.38;1.52;;;6.50;99.90;;;;;;5067849;28;20057;-73
2024/01/31 10:12:22;;;;;;;2.20;1.42;;;6.40;99.90;;;;;;5078145;28;20036;-73
2024/01/31 10:14:52;;;;;;;5.93;2.05;;;6.50;99.90;;;;;;5071688;28;20086;-73
2024/01/31 10:17:20;;;;;;;2.10;1.60;;;6.50;99.90;;;;;;5054290;28;20119;-73
2024/01/31 10:19:45;;;;;;;3.20;1.50;;;6.50;99.90;;;;;;5092382;28;20063;-73
2024/01/31 10:22:11;;;;;;;4.65;1.40;;;6.50;99.90;;;;;;5066207;28;20040;-73
2024/01/31 10:24:38;;;;;;;4.28;1.90;;;6.50;99.90;;;;;;5054037;28;20044;-73
2024/01/31 10:27:06;;;;;;;3.67;1.25;;;6.50;99.90;;;;;;5060792;28;20045;-72
2024/01/31 10:29:37;;;;;;;6.68;2.28;;;6.50;99.90;;;;;;5054135;28;20056;-72
2024/01/31 10:32:03;;;;;;;2.08;1.40;;;6.50;99.90;;;;;;5056021;28;20404;-73
2024/01/31 10:34:29;;;;;;;5.72;1.92;;;6.50;99.90;;;;;;5058291;28;20052;-72
2024/01/31 10:36:56;;;;;;;4.63;1.83;;;6.50;99.90;;;;;;5019867;28;20045;-72
2024/01/31 10:39:22;;;;;;;3.58;1.83;;;6.50;99.90;;;;;;5053368;28;20045;-73
2024/01/31 10:41:49;;;;;;;6.18;1.85;;;6.60;99.90;;;;;;5059966;28;20051;-72
2024/01/31 10:44:15;;;;;;;10.68;2.67;;;6.50;99.90;;;;;;5073289;28;20041;-72
2024/01/31 10:46:42;;;;;;;5.75;2.92;;;6.50;99.90;;;;;;5073398;28;20102;-72
2024/01/31 10:49:09;;;;;;;5.85;2.20;;;6.60;99.90;;;;;;5055326;28;20053;-72
2024/01/31 10:51:37;;;;;;;5.40;2.20;;;6.60;99.90;;;;;;5057777;28;20048;-72
2024/01/31 10:54:06;;;;;;;4.53;1.98;;;6.50;99.90;;;;;;5074185;28;20033;-72
2024/01/31 10:56:33;;;;;;;5.95;2.75;;;6.50;99.90;;;;;;5041384;28;20396;-72
2024/01/31 10:58:59;;;;;;;4.95;2.58;;;6.60;99.90;;;;;;5038869;28;20484;-72
2024/01/31 11:01:30;;;;;;;8.15;3.22;;;6.50;99.90;;;;;;5026757;28;20427;-72
2024/01/31 11:03:56;;;;;;;4.88;3.05;;;6.50;99.90;;;;;;5032999;28;20498;-72
2024/01/31 11:06:29;;;;;;;7.22;3.10;;;6.50;99.90;;;;;;5024050;28;20499;-71
2024/01/31 11:08:55;;;;;;;5.20;2.30;;;6.50;99.90;;;;;;5056064;28;20060;-71
2024/01/31 11:11:21;;;;;;;8.27;3.10;;;6.50;99.90;;;;;;5041551;28;20045;-72
2024/01/31 11:13:47;;;;;;;7.22;4.10;;;6.50;99.90;;;;;;5054582;28;20108;-72
2024/01/31 11:16:24;;;;;;;5.45;3.22;;;6.50;99.90;;;;;;5023775;28;20602;-72
2024/01/31 11:18:52;;;;;;;5.05;2.60;;;6.50;99.90;;;;;;5037761;28;20048;-72
2024/01/31 11:21:18;;;;;;;12.35;3.10;;;6.50;99.90;;;;;;5056572;28;20045;-72
2024/01/31 11:23:44;;;;;;;2.83;2.00;;;6.50;99.90;;;;;;5056652;28;20387;-72
2024/01/31 11:26:10;;;;;;;4.53;2.38;;;6.50;99.90;;;;;;5042001;28;20044;-72
2024/01/31 11:28:43;;;;;;;8.07;2.88;;;6.60;99.90;;;;;;5024879;28;20052;-72
2024/01/31 11:31:10;;;;;;;6.07;2.65;;;6.60;99.90;;;;;;5040162;28;20044;-72
2024/01/31 11:33:36;;;;;;;3.63;2.40;;;6.60;99.90;;;;;;5020857;28;20056;-72
2024/01/31 11:36:02;;;;;;;4.43;2.10;;;6.70;99.90;;;;;;5024395;28;20522;-71
2024/01/31 11:38:27;;;;;;;4.95;2.53;;;6.80;99.90;;;;;;5035286;28;20408;-72
2024/01/31 11:40:53;;;;;;;5.35;2.80;;;6.80;99.90;;;;;;5024311;28;20045;-72
2024/01/31 11:43:19;;;;;;;3.65;2.35;;;6.90;99.90;;;;;;5026307;28;20583;-72
2024/01/31 11:45:45;;;;;;;7.20;2.75;;;7.00;99.90;;;;;;5008772;28;20053;-72
2024/01/31 11:48:14;;;;;;;4.20;2.25;;;7.00;99.90;;;;;;5054035;28;20039;-72
2024/01/31 11:50:40;;;;;;;7.10;3.10;;;7.00;99.90;;;;;;5041437;28;20064;-72
2024/01/31 11:53:05;;;;;;;5.03;2.10;;;7.10;99.90;;;;;;5025301;28;20045;-81
2024/01/31 11:55:33;;;;;;;5.15;2.47;;;7.20;99.90;;;;;;5050647;28;20049;-80
2024/01/31 11:57:59;;;;;;;3.28;2.35;;;7.20;99.90;;;;;;5061784;28;20037;-78
2024/01/31 12:00:25;;;;;;;6.03;2.50;;;7.30;99.90;;;;;;5078868;28;20068;-78
2024/01/31 12:02:52;;;;;;;4.32;2.80;;;7.20;99.90;;;;;;5074920;28;20509;-78
2024/01/31 12:05:18;;;;;;;4.22;2.67;;;7.30;99.90;;;;;;5072843;28;20048;-75
2024/01/31 12:07:55;;;;;;;8.90;3.20;;;7.30;99.90;;;;;;5045622;28;20033;-74
2024/01/31 12:10:21;;;;;;;5.20;2.92;;;7.30;99.90;;;;;;5060637;28;20074;-76
2024/01/31 12:12:47;;;;;;;7.00;3.25;;;7.30;99.90;;;;;;5044511;28;20519;-76
2024/01/31 12:15:12;;;;;;;5.18;2.90;;;7.30;99.90;;;;;;5025770;28;20129;-78
2024/01/31 12:17:39;;;;;;;8.75;2.75;;;7.30;99.90;;;;;;5052881;28;20046;-78
2024/01/31 12:20:08;;;;;;;5.47;2.95;;;7.30;99.90;;;;;;5040486;28;20088;-78
2024/01/31 12:22:34;;;;;;;5.45;3.28;;;7.30;99.90;;;;;;5066837;28;20416;-78
2024/01/31 12:25:04;;;;;;;6.63;3.65;;;7.30;99.90;;;;;;5060693;28;20056;-78
2024/01/31 12:27:30;;;;;;;10.07;3.72;;;7.30;99.90;;;;;;5059048;28;20071;-77
2024/01/31 12:29:56;;;;;;;9.30;4.00;;;7.30;99.90;;;;;;5057143;28;20053;-78
2024/01/31 12:32:23;;;;;;;5.30;3.42;;;7.30;99.90;;;;;;5075182;28;20132;-78
2024/01/31 12:34:48;;;;;;;6.57;3.63;;;7.30;99.90;;;;;;5074345;28;20059;-78
2024/01/31 12:37:15;;;;;;;5.57;3.53;;;7.30;99.90;;;;;;5050934;28;20081;-78
2024/01/31 12:39:41;;;;;;;6.28;3.97;;;7.20;99.90;;;;;;5063779;28;20072;-78
2024/01/31 12:42:08;;;;;;;7.25;3.90;;;7.30;99.90;;;;;;5046400;28;20037;-78
2024/01/31 12:44:34;;;;;;;9.10;3.72;;;7.30;99.90;;;;;;5064935;28;20037;-78
2024/01/31 12:47:05;;;;;;;5.68;3.50;;;7.30;99.90;;;;;;5061329;28;20165;-78
2024/01/31 12:49:41;;;;;;;6.20;2.75;;;7.30;99.90;;;;;;5059415;28;20519;-78
2024/01/31 12:52:07;;;;;;;5.47;3.17;;;7.30;99.90;;;;;;5056628;28;20053;-78
2024/01/31 12:54:33;;;;;;;4.35;3.00;;;7.20;99.90;;;;;;5060436;28;20040;-78